createdAt,value
2023-04-17T00:01:48.009Z,102589.56
2023-04-17T00:04:15.151Z,102584.50
2023-04-17T00:06:46.062Z,102581.63
2023-04-17T00:09:13.074Z,102589.94
2023-04-17T00:11:40.148Z,102579.63
2023-04-17T00:14:07.152Z,102583.25
2023-04-17T00:16:34.084Z,102586.53
2023-04-17T00:19:01.050Z,102586.75
2023-04-17T00:21:30.089Z,102590.31
2023-04-17T00:23:57.116Z,102584.19
2023-04-17T00:26:26.951Z,102566.28
2023-04-17T00:28:53.987Z,102593.28
2023-04-17T00:31:21.041Z,102584.06
2023-04-17T00:33:47.844Z,102575.44
2023-04-17T00:36:16.674Z,102579.81
2023-04-17T00:38:43.650Z,102583.41
2023-04-17T00:41:11.565Z,102587.53
2023-04-17T00:43:39.218Z,102588.91
2023-04-17T00:46:06.451Z,102589.75
2023-04-17T00:48:34.572Z,102589.41
2023-04-17T00:51:03.516Z,102581.94
2023-04-17T00:53:34.309Z,102592.78
2023-04-17T00:56:03.735Z,102589.38
2023-04-17T00:58:31.454Z,102580.69
2023-04-17T01:00:58.391Z,102594.28
2023-04-17T01:03:25.869Z,102591.22
2023-04-17T01:05:53.129Z,102592.28
2023-04-17T01:08:21.521Z,102594.78
2023-04-17T01:10:48.552Z,102585.88
2023-04-17T01:13:15.878Z,102587.81
2023-04-17T01:15:43.226Z,102594.22
2023-04-17T01:18:10.282Z,102587.91
2023-04-17T01:20:37.826Z,102592.06
2023-04-17T01:23:04.669Z,102593.16
2023-04-17T01:25:31.637Z,102590.31
2023-04-17T01:27:58.711Z,102591.69
2023-04-17T01:30:25.684Z,102589.13
2023-04-17T01:32:55.463Z,102595.81
2023-04-17T01:35:23.310Z,102601.09
2023-04-17T01:37:50.505Z,102606.13
2023-04-17T01:40:17.427Z,102602.78
2023-04-17T01:42:44.469Z,102601.09
2023-04-17T01:45:11.964Z,102599.41
2023-04-17T01:47:39.012Z,102597.75
2023-04-17T01:50:09.347Z,102597.19
2023-04-17T01:52:36.698Z,102592.75
2023-04-17T01:55:04.443Z,102603.81
2023-04-17T01:57:33.224Z,102600.78
2023-04-17T02:00:00.218Z,102602.66
2023-04-17T02:02:27.410Z,102597.38
2023-04-17T02:04:56.791Z,102604.03
2023-04-17T02:07:23.599Z,102601.53
2023-04-17T02:09:50.525Z,102598.69
2023-04-17T02:12:17.311Z,102592.63
2023-04-17T02:14:44.203Z,102609.28
2023-04-17T02:17:11.055Z,102599.78
2023-04-17T02:19:38.078Z,102603.31
2023-04-17T02:22:05.244Z,102604.69
2023-04-17T02:24:32.228Z,102601.25
2023-04-17T02:26:59.172Z,102594.03
2023-04-17T02:29:26.247Z,102601.00
2023-04-17T02:31:53.572Z,102606.81
2023-04-17T02:34:20.424Z,102579.22
2023-04-17T02:36:47.263Z,102600.44
2023-04-17T02:39:17.473Z,102600.69
2023-04-17T02:41:44.558Z,102593.97
2023-04-17T02:44:11.565Z,102609.91
2023-04-17T02:46:38.489Z,102598.44
2023-04-17T02:49:05.635Z,102610.69
2023-04-17T02:51:32.626Z,102606.25
2023-04-17T02:53:59.393Z,102614.63
2023-04-17T02:56:26.402Z,102613.97
2023-04-17T02:58:53.402Z,102611.22
2023-04-17T03:01:20.279Z,102617.31
2023-04-17T03:03:48.053Z,102625.06
2023-04-17T03:06:15.473Z,102622.53
2023-04-17T03:08:42.351Z,102625.84
2023-04-17T03:11:09.424Z,102624.44
2023-04-17T03:13:39.521Z,102551.00
2023-04-17T03:16:06.869Z,102631.31
2023-04-17T03:18:36.047Z,102615.06
2023-04-17T03:21:02.992Z,102631.25
2023-04-17T03:23:30.181Z,102637.63
2023-04-17T03:25:59.343Z,102633.75
2023-04-17T03:28:26.423Z,102629.06
2023-04-17T03:30:55.067Z,102627.69
2023-04-17T03:33:22.644Z,102630.47
2023-04-17T03:35:49.667Z,102621.25
2023-04-17T03:38:17.157Z,102619.31
2023-04-17T03:40:44.366Z,102624.88
2023-04-17T03:43:11.557Z,102629.13
2023-04-17T03:45:38.482Z,102634.94
2023-04-17T03:48:06.317Z,102637.09
2023-04-17T03:50:33.276Z,102639.03
2023-04-17T03:53:00.324Z,102642.16
2023-04-17T03:55:27.310Z,102629.63
2023-04-17T03:57:54.254Z,102638.28
2023-04-17T04:00:24.148Z,102636.22
2023-04-17T04:02:51.199Z,102638.09
2023-04-17T04:05:18.317Z,102653.25
2023-04-17T04:07:45.365Z,102643.88
2023-04-17T04:10:12.396Z,102639.63
2023-04-17T04:12:39.257Z,102620.59
2023-04-17T04:15:06.800Z,102618.09
2023-04-17T04:17:33.621Z,102651.75
2023-04-17T04:20:00.642Z,102654.84
2023-04-17T04:22:28.167Z,102651.34
2023-04-17T04:24:55.082Z,102651.03
2023-04-17T04:27:22.935Z,102660.50
2023-04-17T04:29:50.564Z,102657.50
2023-04-17T04:32:17.468Z,102648.19
2023-04-17T04:34:44.911Z,102662.78
2023-04-17T04:37:16.142Z,102658.34
2023-04-17T04:39:43.490Z,102641.91
2023-04-17T04:42:10.607Z,102665.69
2023-04-17T04:44:37.779Z,102663.50
2023-04-17T04:47:04.840Z,102665.16
2023-04-17T04:49:31.894Z,102669.94
2023-04-17T04:51:58.945Z,102669.19
2023-04-17T04:54:26.050Z,102648.03
2023-04-17T04:56:53.014Z,102668.28
2023-04-17T04:59:20.084Z,102664.72
2023-04-17T05:01:48.069Z,102666.13
2023-04-17T05:04:15.305Z,102673.41
2023-04-17T05:06:42.369Z,102676.06
2023-04-17T05:09:09.551Z,102670.75
2023-04-17T05:11:36.780Z,102675.25
2023-04-17T05:14:03.618Z,102677.00
2023-04-17T05:16:31.148Z,102682.41
2023-04-17T05:18:57.983Z,102677.84
2023-04-17T05:21:25.330Z,102684.75
2023-04-17T05:23:52.273Z,102680.94
2023-04-17T05:26:22.420Z,102684.09
2023-04-17T05:28:49.678Z,102662.31
2023-04-17T05:31:17.327Z,102663.19
2023-04-17T05:33:44.162Z,102685.53
2023-04-17T05:36:11.129Z,102685.00
2023-04-17T05:38:38.124Z,102694.59
2023-04-17T05:41:07.736Z,102691.28
2023-04-17T05:43:34.756Z,102698.88
2023-04-17T05:46:02.221Z,102701.47
2023-04-17T05:48:30.151Z,102701.19
2023-04-17T05:50:57.215Z,102708.50
2023-04-17T05:53:24.413Z,102707.38
2023-04-17T05:55:51.372Z,102704.91
2023-04-17T05:58:23.584Z,102702.38
2023-04-17T06:00:52.638Z,102699.28
2023-04-17T06:03:20.667Z,102702.31
2023-04-17T06:05:48.528Z,102705.31
2023-04-17T06:08:15.831Z,102699.63
2023-04-17T06:10:46.231Z,102708.19
2023-04-17T06:13:13.030Z,102714.75
2023-04-17T06:15:39.937Z,102713.09
2023-04-17T06:18:08.243Z,102715.16
2023-04-17T06:20:35.265Z,102709.66
2023-04-17T06:23:02.298Z,102712.97
2023-04-17T06:25:29.106Z,102706.47
2023-04-17T06:27:56.005Z,102705.78
2023-04-17T06:30:22.975Z,102714.56
2023-04-17T06:32:49.937Z,102704.84
2023-04-17T06:35:16.808Z,102716.16
2023-04-17T06:37:43.690Z,102712.59
2023-04-17T06:40:12.561Z,102716.59
2023-04-17T06:42:39.462Z,102710.28
2023-04-17T06:45:07.297Z,102718.47
2023-04-17T06:47:34.201Z,102714.41
2023-04-17T06:50:01.083Z,102708.72
2023-04-17T06:52:27.966Z,102708.56
2023-04-17T06:54:55.562Z,102712.00
2023-04-17T06:57:22.935Z,102709.09
2023-04-17T06:59:49.752Z,102707.19
2023-04-17T07:02:16.903Z,102699.03
2023-04-17T07:04:44.046Z,102699.16
2023-04-17T07:07:11.369Z,102714.84
2023-04-17T07:09:38.606Z,102705.63
2023-04-17T07:12:05.708Z,102716.09
2023-04-17T07:14:33.705Z,102724.81
2023-04-17T07:17:00.842Z,102716.84
2023-04-17T07:19:27.805Z,102720.34
2023-04-17T07:21:54.771Z,102720.94
2023-04-17T07:24:21.799Z,102719.56
2023-04-17T07:26:49.754Z,102709.72
2023-04-17T07:29:17.310Z,102717.59
2023-04-17T07:31:44.447Z,102717.69
2023-04-17T07:34:11.531Z,102724.31
2023-04-17T07:36:38.368Z,102696.81
2023-04-17T07:39:06.791Z,102731.00
2023-04-17T07:41:33.893Z,102726.19
2023-04-17T07:44:03.488Z,102724.38
2023-04-17T07:46:30.926Z,102725.09
2023-04-17T07:48:59.069Z,102725.59
2023-04-17T07:51:26.412Z,102725.41
2023-04-17T07:53:53.361Z,102727.53
2023-04-17T07:56:20.357Z,102721.59
2023-04-17T07:58:47.308Z,102728.75
2023-04-17T08:01:14.412Z,102728.41
2023-04-17T08:03:42.171Z,102730.31
2023-04-17T08:06:09.053Z,102714.09
2023-04-17T08:08:36.525Z,102733.72
2023-04-17T08:11:04.447Z,102723.53
2023-04-17T08:13:34.204Z,102710.78
2023-04-17T08:16:01.728Z,102725.31
2023-04-17T08:18:28.593Z,102726.03
2023-04-17T08:20:56.042Z,102725.47
2023-04-17T08:23:23.112Z,102726.13
2023-04-17T08:25:50.218Z,102721.97
2023-04-17T08:28:17.252Z,102717.69
2023-04-17T08:30:44.550Z,102712.91
2023-04-17T08:33:13.627Z,102709.97
2023-04-17T08:35:42.882Z,102709.59
2023-04-17T08:38:14.219Z,102707.63
2023-04-17T08:40:47.382Z,102712.44
2023-04-17T08:43:21.095Z,102708.50
2023-04-17T08:45:56.920Z,102704.41
2023-04-17T08:48:24.908Z,102701.47
2023-04-17T08:50:53.984Z,102710.75
2023-04-17T08:53:21.692Z,102711.47
2023-04-17T08:55:49.086Z,102718.00
2023-04-17T08:58:16.137Z,102712.41
2023-04-17T09:00:45.129Z,102713.22
2023-04-17T09:03:14.413Z,102711.13
2023-04-17T09:05:46.102Z,102715.03
2023-04-17T09:08:26.392Z,102710.88
2023-04-17T09:10:55.438Z,102708.97
2023-04-17T09:13:25.551Z,102705.50
2023-04-17T09:16:10.070Z,102693.00
2023-04-17T09:18:38.039Z,102708.94
2023-04-17T09:21:06.583Z,102701.38
2023-04-17T09:23:56.617Z,102701.31
2023-04-17T09:26:28.068Z,102704.41
2023-04-17T09:29:12.135Z,102709.88
2023-04-17T09:31:41.451Z,102696.09
2023-04-17T09:34:16.800Z,102701.00
2023-04-17T09:36:44.900Z,102696.66
2023-04-17T09:39:21.021Z,102709.84
2023-04-17T09:41:48.172Z,102709.47
2023-04-17T09:44:28.894Z,102706.06
2023-04-17T09:46:56.111Z,102713.16
2023-04-17T09:49:49.610Z,102704.44
2023-04-17T09:52:17.198Z,102719.44
2023-04-17T09:54:46.551Z,102691.13
2023-04-17T09:57:13.717Z,102704.56
2023-04-17T09:59:42.083Z,102711.50
2023-04-17T10:02:09.870Z,102711.03
2023-04-17T10:04:41.927Z,102706.06
2023-04-17T10:07:09.200Z,102707.00
2023-04-17T10:09:36.467Z,102703.41
2023-04-17T10:12:05.723Z,102705.22
2023-04-17T10:14:37.885Z,102705.06
2023-04-17T10:17:25.140Z,102699.16
2023-04-17T10:19:52.442Z,102695.44
2023-04-17T10:22:19.362Z,102699.63
2023-04-17T10:24:53.998Z,102687.25
2023-04-17T10:27:26.757Z,102700.97
2023-04-17T10:29:58.324Z,102686.44
2023-04-17T10:32:28.954Z,102703.69
2023-04-17T10:35:00.966Z,102708.00
2023-04-17T10:37:52.475Z,102706.97
2023-04-17T10:40:22.968Z,102714.00
2023-04-17T10:43:12.489Z,102713.56
2023-04-17T10:46:04.737Z,102708.06
2023-04-17T10:48:41.144Z,102693.41
2023-04-17T10:51:27.430Z,102707.00
2023-04-17T10:54:01.185Z,102707.41
2023-04-17T10:56:35.659Z,102715.34
2023-04-17T10:59:05.241Z,102697.13
2023-04-17T11:01:37.319Z,102706.75
2023-04-17T11:04:05.335Z,102700.47
2023-04-17T11:06:38.269Z,102701.72
2023-04-17T11:09:09.356Z,102710.78
2023-04-17T11:11:44.574Z,102695.78
2023-04-17T11:14:17.923Z,102696.22
2023-04-17T11:16:47.861Z,102696.06
2023-04-17T11:19:19.983Z,102693.28
2023-04-17T11:21:49.078Z,102684.31
2023-04-17T11:24:30.418Z,102692.88
2023-04-17T11:27:00.250Z,102707.97
2023-04-17T11:29:27.802Z,102704.00
2023-04-17T11:31:56.659Z,102696.97
2023-04-17T11:34:26.201Z,102709.81
2023-04-17T11:36:56.338Z,102710.03
2023-04-17T11:39:29.106Z,102704.50
2023-04-17T11:41:59.588Z,102703.56
2023-04-17T11:44:26.879Z,102702.41
2023-04-17T11:46:54.998Z,102709.69
2023-04-17T11:49:29.670Z,102709.97
2023-04-17T11:52:02.292Z,102715.69
2023-04-17T11:54:31.378Z,102715.47
2023-04-17T11:57:00.286Z,102735.25
2023-04-17T11:59:38.305Z,102722.03
2023-04-17T12:02:07.858Z,102735.66
2023-04-17T12:04:40.047Z,102742.22
2023-04-17T12:07:09.134Z,102736.84
2023-04-17T12:09:36.918Z,102731.75
2023-04-17T12:12:07.921Z,102731.25
2023-04-17T12:14:35.099Z,102738.50
2023-04-17T12:17:02.010Z,102732.91
2023-04-17T12:19:30.027Z,102735.66
2023-04-17T12:21:57.650Z,102739.44
2023-04-17T12:24:25.671Z,102731.59
2023-04-17T12:26:53.340Z,102723.19
2023-04-17T12:29:29.369Z,102739.97
2023-04-17T12:32:08.112Z,102749.09
2023-04-17T12:34:35.308Z,102749.94
2023-04-17T12:37:02.247Z,102749.84
2023-04-17T12:39:30.132Z,102755.84
2023-04-17T12:41:57.216Z,102751.94
2023-04-17T12:44:24.165Z,102749.97
2023-04-17T12:46:50.997Z,102750.44
2023-04-17T12:49:17.942Z,102751.50
2023-04-17T12:51:44.820Z,102740.19
2023-04-17T12:54:12.141Z,102753.38
2023-04-17T12:56:39.157Z,102759.81
2023-04-17T12:59:06.171Z,102764.63
2023-04-17T13:01:33.188Z,102760.88
2023-04-17T13:04:01.570Z,102766.50
2023-04-17T13:06:28.763Z,102767.97
2023-04-17T13:08:55.666Z,102769.44
2023-04-17T13:11:22.734Z,102762.41
2023-04-17T13:13:49.564Z,102764.72
2023-04-17T13:16:16.651Z,102762.56
2023-04-17T13:18:43.351Z,102758.00
2023-04-17T13:21:10.271Z,102757.13
2023-04-17T13:23:37.294Z,102779.22
2023-04-17T13:26:04.642Z,102770.66
2023-04-17T13:28:31.729Z,102745.69
2023-04-17T13:30:58.744Z,102769.34
2023-04-17T13:33:25.819Z,102731.56
2023-04-17T13:35:54.134Z,102766.88
2023-04-17T13:38:20.993Z,102761.78
2023-04-17T13:40:47.898Z,102756.06
2023-04-17T13:43:14.930Z,102748.97
2023-04-17T13:45:42.034Z,102760.88
2023-04-17T13:48:10.014Z,102769.28
2023-04-17T13:50:37.157Z,102748.53
2023-04-17T13:53:04.094Z,102748.28
2023-04-17T13:55:31.043Z,102757.34
2023-04-17T13:57:58.055Z,102757.03
2023-04-17T14:00:25.104Z,102752.16
2023-04-17T14:02:52.180Z,102753.56
2023-04-17T14:05:19.126Z,102751.94
2023-04-17T14:07:46.081Z,102760.06
2023-04-17T14:10:13.583Z,102756.59
2023-04-17T14:12:40.788Z,102761.97
2023-04-17T14:15:08.354Z,102760.38
2023-04-17T14:17:38.261Z,102756.19
2023-04-17T14:20:06.255Z,102759.50
2023-04-17T14:22:33.068Z,102759.22
2023-04-17T14:24:59.925Z,102728.50
2023-04-17T14:27:27.236Z,102757.94
2023-04-17T14:29:54.142Z,102778.16
2023-04-17T14:32:21.190Z,102768.81
2023-04-17T14:34:48.102Z,102767.66
2023-04-17T14:37:15.001Z,102766.34
2023-04-17T14:39:44.636Z,102761.03
2023-04-17T14:42:11.489Z,102754.38
2023-04-17T14:44:38.337Z,102739.00
2023-04-17T14:47:05.598Z,102752.88
2023-04-17T14:49:32.466Z,102754.41
2023-04-17T14:51:59.456Z,102759.28
2023-04-17T14:54:26.702Z,102769.28
2023-04-17T14:56:54.574Z,102729.72
2023-04-17T14:59:21.710Z,102765.91
2023-04-17T15:01:48.656Z,102767.09
2023-04-17T15:04:16.326Z,102768.28
2023-04-17T15:06:43.351Z,102778.06
2023-04-17T15:09:10.853Z,102767.47
2023-04-17T15:11:37.923Z,102783.84
2023-04-17T15:14:05.127Z,102782.41
2023-04-17T15:16:32.066Z,102783.88
2023-04-17T15:18:58.894Z,102780.69
2023-04-17T15:21:26.820Z,102790.28
2023-04-17T15:23:53.561Z,102785.59
2023-04-17T15:26:20.386Z,102783.75
2023-04-17T15:28:47.327Z,102789.88
2023-04-17T15:31:14.312Z,102796.00
2023-04-17T15:33:41.588Z,102790.56
2023-04-17T15:36:08.567Z,102802.50
2023-04-17T15:38:35.555Z,102808.50
2023-04-17T15:41:03.756Z,102800.53
2023-04-17T15:43:31.087Z,102803.88
2023-04-17T15:46:02.412Z,102789.78
2023-04-17T15:48:29.622Z,102811.63
2023-04-17T15:50:56.422Z,102807.44
2023-04-17T15:53:23.480Z,102813.09
2023-04-17T15:55:50.434Z,102759.88
2023-04-17T15:58:17.244Z,102806.75
2023-04-17T16:00:44.167Z,102817.88
2023-04-17T16:03:12.267Z,102811.22
2023-04-17T16:05:39.223Z,102810.41
2023-04-17T16:08:06.255Z,102822.09
2023-04-17T16:10:35.000Z,102825.13
2023-04-17T16:13:02.128Z,102811.22
2023-04-17T16:15:28.858Z,102823.59
2023-04-17T16:17:55.912Z,102828.09
2023-04-17T16:20:23.270Z,102826.44
2023-04-17T16:22:51.940Z,102835.09
2023-04-17T16:25:20.651Z,102787.44
2023-04-17T16:27:47.724Z,102837.34
2023-04-17T16:30:15.093Z,102815.88
2023-04-17T16:32:42.433Z,102815.06
2023-04-17T16:35:09.601Z,102835.72
2023-04-17T16:37:36.549Z,102837.09
2023-04-17T16:40:05.351Z,102839.88
2023-04-17T16:42:32.943Z,102844.34
2023-04-17T16:45:00.276Z,102850.22
2023-04-17T16:47:30.003Z,102849.91
2023-04-17T16:49:57.294Z,102853.81
2023-04-17T16:52:24.128Z,102857.72
2023-04-17T16:54:51.075Z,102860.72
2023-04-17T16:57:18.612Z,102843.91
2023-04-17T16:59:45.498Z,102863.16
2023-04-17T17:02:12.544Z,102870.97
2023-04-17T17:04:39.443Z,102868.97
2023-04-17T17:07:06.597Z,102875.16
2023-04-17T17:09:33.521Z,102866.47
2023-04-17T17:12:00.820Z,102866.50
2023-04-17T17:14:27.686Z,102872.59
2023-04-17T17:16:54.638Z,102866.69
2023-04-17T17:19:21.849Z,102865.22
2023-04-17T17:21:50.145Z,102878.34
2023-04-17T17:24:17.140Z,102880.22
2023-04-17T17:26:43.934Z,102891.50
2023-04-17T17:29:14.093Z,102884.19
2023-04-17T17:31:41.143Z,102886.09
2023-04-17T17:34:22.445Z,102888.25
2023-04-17T17:36:53.152Z,102882.63
2023-04-17T17:39:21.385Z,102888.41
2023-04-17T17:41:48.739Z,102850.19
2023-04-17T17:44:15.858Z,102894.66
2023-04-17T17:46:42.868Z,102899.59
2023-04-17T17:49:10.071Z,102894.72
2023-04-17T17:51:36.942Z,102902.69
2023-04-17T17:54:04.087Z,102903.16
2023-04-17T17:56:31.071Z,102906.22
2023-04-17T17:58:58.158Z,102916.19
2023-04-17T18:01:25.220Z,102911.19
2023-04-17T18:03:53.583Z,102913.31
2023-04-17T18:06:21.509Z,102907.91
2023-04-17T18:08:48.556Z,102910.88
2023-04-17T18:11:15.526Z,102907.13
2023-04-17T18:13:42.402Z,102903.91
2023-04-17T18:16:09.621Z,102908.47
2023-04-17T18:18:36.686Z,102909.69
2023-04-17T18:21:09.840Z,102919.31
2023-04-17T18:23:36.901Z,102910.72
2023-04-17T18:26:04.499Z,102903.97
2023-04-17T18:28:31.334Z,102916.53
2023-04-17T18:30:58.422Z,102909.91
2023-04-17T18:33:25.331Z,102922.75
2023-04-17T18:35:52.190Z,102922.28
2023-04-17T18:38:19.168Z,102923.81
2023-04-17T18:40:46.155Z,102920.25
2023-04-17T18:43:13.272Z,102925.38
2023-04-17T18:45:40.828Z,102933.13
2023-04-17T18:48:07.958Z,102929.16
2023-04-17T18:50:34.922Z,102929.94
2023-04-17T18:53:02.482Z,102933.19
2023-04-17T18:55:29.836Z,102938.41
2023-04-17T18:57:56.875Z,102935.47
2023-04-17T19:00:23.995Z,102939.75
2023-04-17T19:02:51.181Z,102942.91
2023-04-17T19:05:20.541Z,102938.56
2023-04-17T19:07:52.130Z,102932.84
2023-04-17T19:10:19.118Z,102947.75
2023-04-17T19:12:48.079Z,102940.22
2023-04-17T19:15:17.641Z,102943.44
2023-04-17T19:17:45.223Z,102942.28
2023-04-17T19:20:12.397Z,102939.94
2023-04-17T19:22:39.409Z,102944.41
2023-04-17T19:25:06.636Z,102937.72
2023-04-17T19:27:33.586Z,102943.84
2023-04-17T19:30:00.575Z,102948.88
2023-04-17T19:32:28.625Z,102945.00
2023-04-17T19:34:56.054Z,102956.72
2023-04-17T19:37:22.875Z,102950.38
2023-04-17T19:39:50.198Z,102952.75
2023-04-17T19:42:18.557Z,102941.72
2023-04-17T19:44:46.561Z,102948.94
2023-04-17T19:47:13.516Z,102954.44
2023-04-17T19:49:40.848Z,102965.44
2023-04-17T19:52:07.675Z,102961.63
2023-04-17T19:54:34.626Z,102947.66
2023-04-17T19:57:02.707Z,102963.69
2023-04-17T19:59:29.815Z,102970.31
2023-04-17T20:01:56.668Z,102964.28
2023-04-17T20:04:23.665Z,102934.78
2023-04-17T20:06:50.651Z,102972.19
2023-04-17T20:09:17.561Z,102974.84
2023-04-17T20:11:44.719Z,102970.75
2023-04-17T20:14:14.859Z,102981.47
2023-04-17T20:16:42.448Z,102984.38
2023-04-17T20:19:09.794Z,102977.50
2023-04-17T20:21:37.169Z,102982.56
2023-04-17T20:24:04.316Z,102980.75
2023-04-17T20:26:31.092Z,102983.13
2023-04-17T20:28:58.051Z,102985.44
2023-04-17T20:31:25.144Z,102978.34
2023-04-17T20:33:52.146Z,102973.41
2023-04-17T20:36:18.918Z,102971.34
2023-04-17T20:38:48.390Z,102982.06
2023-04-17T20:41:15.266Z,102980.16
2023-04-17T20:43:42.175Z,102989.41
2023-04-17T20:46:09.222Z,102985.69
2023-04-17T20:48:36.284Z,102988.22
2023-04-17T20:51:05.915Z,102977.38
2023-04-17T20:53:33.188Z,102982.66
2023-04-17T20:56:00.176Z,102985.44
2023-04-17T20:58:27.191Z,102979.19
2023-04-17T21:01:01.324Z,102979.81
2023-04-17T21:03:32.180Z,102982.34
2023-04-17T21:06:01.281Z,102990.84
2023-04-17T21:08:28.293Z,102989.66
2023-04-17T21:10:55.062Z,102955.13
2023-04-17T21:13:23.069Z,102981.34
2023-04-17T21:15:50.295Z,102982.16
2023-04-17T21:18:17.189Z,102977.63
2023-04-17T21:20:44.199Z,102981.56
2023-04-17T21:23:11.161Z,102987.09
2023-04-17T21:25:38.105Z,102988.53
2023-04-17T21:28:05.011Z,102989.91
2023-04-17T21:30:32.049Z,102988.94
2023-04-17T21:32:59.224Z,102983.19
2023-04-17T21:35:26.092Z,102984.94
2023-04-17T21:37:53.068Z,102979.66
2023-04-17T21:40:20.068Z,102986.66
2023-04-17T21:42:46.789Z,102993.00
2023-04-17T21:45:15.086Z,102984.44
2023-04-17T21:47:42.080Z,102987.97
2023-04-17T21:50:09.766Z,102986.50
2023-04-17T21:52:36.799Z,102985.53
2023-04-17T21:55:05.787Z,102985.69
2023-04-17T21:57:32.748Z,102990.16
2023-04-17T21:59:59.914Z,102987.97
2023-04-17T22:02:26.716Z,102995.69
2023-04-17T22:04:54.364Z,102996.41
2023-04-17T22:07:21.817Z,103004.59
2023-04-17T22:09:48.836Z,103010.81
2023-04-17T22:12:20.966Z,103012.81
2023-04-17T22:14:51.220Z,103007.44
2023-04-17T22:17:18.222Z,103010.44
2023-04-17T22:19:45.047Z,103010.22
2023-04-17T22:22:11.821Z,103011.53
2023-04-17T22:24:38.701Z,103015.38
2023-04-17T22:27:05.568Z,103015.59
2023-04-17T22:29:32.411Z,103020.16
2023-04-17T22:31:59.242Z,103007.19
2023-04-17T22:34:26.151Z,103018.28
2023-04-17T22:36:52.988Z,103015.13
2023-04-17T22:39:19.697Z,103023.59
2023-04-17T22:41:46.573Z,103020.00
2023-04-17T22:44:13.920Z,103019.84
2023-04-17T22:46:41.289Z,103017.34
2023-04-17T22:49:11.392Z,103019.78
2023-04-17T22:51:38.834Z,103024.19
2023-04-17T22:54:18.958Z,103025.03
2023-04-17T22:56:48.795Z,103021.59
2023-04-17T22:59:15.799Z,103028.66
2023-04-17T23:01:42.834Z,103026.22
2023-04-17T23:04:10.873Z,103012.75
2023-04-17T23:06:37.769Z,103026.47
2023-04-17T23:09:05.206Z,103019.38
2023-04-17T23:11:33.280Z,103025.66
2023-04-17T23:14:02.372Z,103019.28
2023-04-17T23:16:32.309Z,103023.13
2023-04-17T23:18:59.507Z,103020.22
2023-04-17T23:21:26.543Z,103020.34
2023-04-17T23:23:53.509Z,103015.16
2023-04-17T23:26:20.353Z,103022.03
2023-04-17T23:28:47.590Z,103015.91
2023-04-17T23:31:14.520Z,103016.34
2023-04-17T23:33:41.364Z,103020.34
2023-04-17T23:36:08.582Z,103017.44
2023-04-17T23:38:35.575Z,103018.50
2023-04-17T23:41:02.335Z,103020.44
2023-04-17T23:43:29.301Z,103025.72
2023-04-17T23:45:57.931Z,103021.16
2023-04-17T23:48:24.712Z,103026.94
2023-04-17T23:50:51.783Z,103029.97
2023-04-17T23:53:18.726Z,103034.19
2023-04-17T23:55:45.723Z,103036.78
2023-04-17T23:58:12.536Z,103030.88
